Time;durP1;ratioP1;P1;durP2;ratioP2;P2;SDS_P1;SDS_P2;PMS_P1;PMS_P2;Temp;Humidity;BMP_temperature;BMP_pressure;BME280_temperature;BME280_humidity;BME280_pressure;Samples;Min_cycle;Max_cycle;Signal;HPM_P1;HPM_P2
2021/12/24 00:00:28;;;;;;;3.95;3.47;;;;;;;-20.24;57.85;99855.50;4935555;29;20043;-78
2021/12/24 00:02:56;;;;;;;9.05;4.78;;;;;;;-20.25;57.93;99857.16;4935686;29;20196;-79
2021/12/24 00:05:22;;;;;;;7.63;3.85;;;;;;;-20.20;58.01;99859.94;4903244;29;20051;-78
2021/12/24 00:07:48;;;;;;;4.28;3.38;;;;;;;-20.30;57.95;99862.84;4918536;29;20415;-79
2021/12/24 00:10:14;;;;;;;3.75;3.20;;;;;;;-20.36;57.56;99863.38;4918766;29;20047;-78
2021/12/24 00:12:46;;;;;;;7.53;4.45;;;;;;;-20.25;57.85;99862.25;4935647;29;20503;-78
2021/12/24 00:15:37;;;;;;;3.40;3.10;;;;;;;-20.26;58.16;99874.91;4934583;29;20048;-78
2021/12/24 00:18:07;;;;;;;2.63;2.42;;;;;;;-20.24;57.97;99868.22;4934362;29;20542;-79
2021/12/24 00:21:40;;;;;;;3.13;2.40;;;;;;;-20.27;57.96;99878.22;4934607;29;20574;-78
2021/12/24 00:36:43;;;;;;;8.13;4.53;;;;;;;-20.38;58.68;99893.84;4918156;29;20059;-79
2021/12/24 00:39:09;;;;;;;5.18;3.53;;;;;;;-20.50;58.74;99897.44;4934181;29;20051;-78
2021/12/24 00:41:35;;;;;;;7.63;4.43;;;;;;;-20.51;58.59;99880.44;4934022;29;20091;-79
2021/12/24 00:44:01;;;;;;;4.38;3.72;;;;;;;-20.46;58.93;99892.53;4934448;29;20454;-80
2021/12/24 00:46:27;;;;;;;11.40;4.97;;;;;;;-20.47;58.81;99885.72;4950062;29;20143;-79
2021/12/24 00:48:55;;;;;;;3.25;2.83;;;;;;;-20.54;58.96;99881.13;4918322;29;20043;-79
2021/12/24 00:51:31;;;;;;;4.35;3.17;;;;;;;-20.52;59.01;99897.34;4918143;29;20526;-78
2021/12/24 00:56:42;;;;;;;3.70;3.40;;;;;;;-20.53;58.84;99890.53;4905124;29;20509;-79
2021/12/24 00:59:09;;;;;;;6.15;3.30;;;;;;;-20.59;58.96;99900.38;4921273;29;20043;-79
2021/12/24 01:01:35;;;;;;;4.57;4.10;;;;;;;-20.60;59.31;99893.56;4906061;29;20138;-79
2021/12/24 01:04:01;;;;;;;4.68;3.90;;;;;;;-20.47;59.12;99911.13;4890550;29;20043;-80
2021/12/24 01:06:27;;;;;;;2.85;2.38;;;;;;;-20.47;59.28;99906.06;4892567;29;20071;-79
2021/12/24 01:08:54;;;;;;;8.23;6.18;;;;;;;-20.56;59.17;99920.88;4911153;29;20086;-78
2021/12/24 01:11:20;;;;;;;4.13;3.45;;;;;;;-20.58;58.63;99897.03;4921691;29;20048;-79
2021/12/24 01:13:46;;;;;;;6.47;4.00;;;;;;;-20.60;59.22;99929.13;4937318;29;20459;-79
2021/12/24 01:16:52;;;;;;;4.30;3.88;;;;;;;-20.66;59.37;99918.63;4922094;29;20043;-79
2021/12/24 01:19:16;;;;;;;3.63;3.28;;;;;;;-20.72;59.59;99914.13;4919337;29;20059;-80
2021/12/24 01:22:10;;;;;;;10.18;5.68;;;;;;;-20.75;59.71;99915.63;4923300;29;20127;-80
2021/12/24 01:24:44;;;;;;;4.85;4.03;;;;;;;-20.77;59.68;99917.19;4908515;29;20047;-80
2021/12/24 01:30:00;;;;;;;5.13;4.07;;;;;;;-20.76;59.76;99924.00;4921428;29;20054;-78
2021/12/24 01:38:10;;;;;;;3.33;3.10;;;;;;;-20.99;59.99;99938.03;4914128;29;20495;-79
2021/12/24 01:40:51;;;;;;;5.93;3.63;;;;;;;-20.95;60.14;99920.50;4891687;29;20454;-78
2021/12/24 01:43:18;;;;;;;4.45;3.28;;;;;;;-21.06;59.81;99928.31;4936905;29;20086;-79
2021/12/24 01:45:49;;;;;;;7.50;4.60;;;;;;;-21.17;59.80;99925.19;4920583;29;20525;-79
2021/12/24 01:48:15;;;;;;;5.13;4.55;;;;;;;-21.24;60.16;99920.59;4889652;29;20522;-80
2021/12/24 01:50:47;;;;;;;3.63;3.33;;;;;;;-21.18;60.22;99933.63;4889525;29;20051;-79
2021/12/24 01:53:15;;;;;;;4.93;3.30;;;;;;;-21.20;60.31;99932.69;4923609;29;20044;-81
2021/12/24 01:55:43;;;;;;;6.15;3.65;;;;;;;-21.25;59.95;99929.00;4941154;29;20055;-80
2021/12/24 01:58:09;;;;;;;4.15;3.47;;;;;;;-21.23;60.40;99924.88;4952621;29;20055;-80
2021/12/24 02:00:42;;;;;;;3.63;3.33;;;;;;;-21.08;60.08;99933.34;4920694;29;20051;-79
2021/12/24 02:03:09;;;;;;;13.80;3.88;;;;;;;-21.20;59.93;99925.06;4936790;29;20052;-81
2021/12/24 02:05:35;;;;;;;5.50;4.10;;;;;;;-21.26;59.99;99927.25;4904870;29;20054;-79
2021/12/24 02:08:02;;;;;;;5.40;3.05;;;;;;;-21.25;60.15;99927.31;4905285;29;20047;-79
2021/12/24 02:10:28;;;;;;;10.10;4.45;;;;;;;-21.26;60.06;99933.19;4872773;29;20070;-79
2021/12/24 02:12:54;;;;;;;4.50;3.45;;;;;;;-21.27;60.00;99930.59;4889744;29;20479;-79
2021/12/24 02:16:00;;;;;;;3.10;2.92;;;;;;;-21.37;60.39;99932.63;4920974;29;20044;-80
2021/12/24 02:29:33;;;;;;;6.18;3.25;;;;;;;-21.25;60.19;99941.69;4915250;29;20518;-78
2021/12/24 02:31:59;;;;;;;6.47;4.22;;;;;;;-21.29;60.58;99942.31;4906789;29;20096;-80
2021/12/24 02:34:25;;;;;;;6.05;3.92;;;;;;;-21.25;60.57;99944.22;4919836;29;20071;-80
2021/12/24 02:36:51;;;;;;;4.40;4.00;;;;;;;-21.19;60.16;99950.53;4916551;29;20096;-79
2021/12/24 02:39:17;;;;;;;3.67;3.25;;;;;;;-21.14;59.93;99958.38;4869198;29;20401;-79
2021/12/24 02:41:43;;;;;;;5.28;3.63;;;;;;;-21.23;60.17;99957.88;4900252;29;20072;-79
2021/12/24 02:44:10;;;;;;;4.47;3.25;;;;;;;-21.18;60.13;99959.00;4869876;29;20043;-79
2021/12/24 02:47:10;;;;;;;4.00;2.45;;;;;;;-21.24;59.88;99961.22;4900163;29;20064;-79
2021/12/24 02:55:10;;;;;;;3.88;3.45;;;;;;;-21.30;59.95;99981.19;4900335;29;20044;-80
2021/12/24 02:57:38;;;;;;;1.98;1.88;;;;;;;-21.22;59.67;99990.09;4900485;29;20059;-80
2021/12/24 03:00:15;;;;;;;4.28;3.88;;;;;;;-21.30;59.57;99973.56;4885440;29;20138;-77
2021/12/24 03:02:44;;;;;;;2.97;2.60;;;;;;;-21.41;59.91;99973.00;4916212;29;20044;-79
2021/12/24 03:05:09;;;;;;;;;;;;;;;-21.40;59.94;99983.22;4916384;29;20122;-78
2021/12/24 03:07:39;;;;;;;2.42;2.28;;;;;;;-21.46;59.99;99984.56;4916002;29;20398;-81
2021/12/24 03:10:11;;;;;;;8.02;4.07;;;;;;;-21.34;60.17;99980.16;4900352;29;20048;-81
2021/12/24 03:12:37;;;;;;;3.20;2.97;;;;;;;-21.29;60.31;99967.69;4916130;29;20075;-81
2021/12/24 03:15:05;;;;;;;2.70;2.50;;;;;;;-21.19;59.95;99985.19;4916040;29;20119;-81
2021/12/24 03:17:32;;;;;;;2.53;2.37;;;;;;;-21.28;59.65;99967.81;4884708;29;20048;-79
2021/12/24 03:20:05;;;;;;;5.32;3.67;;;;;;;-21.30;59.98;99981.19;4899700;29;20543;-80
2021/12/24 03:22:46;;;;;;;5.95;3.88;;;;;;;-21.24;59.62;99986.63;4869391;29;20153;-80
2021/12/24 03:25:13;;;;;;;5.63;3.17;;;;;;;-21.20;59.91;99993.59;4902088;29;20487;-80
2021/12/24 03:27:39;;;;;;;8.50;4.63;;;;;;;-21.18;59.54;99986.94;4884151;29;20044;-81
2021/12/24 03:30:05;;;;;;;2.83;2.63;;;;;;;-21.11;59.46;99989.91;4884466;29;20075;-79
2021/12/24 03:32:31;;;;;;;2.83;2.63;;;;;;;-21.14;59.16;99979.56;4900112;29;20108;-80
2021/12/24 03:34:57;;;;;;;3.20;2.60;;;;;;;-21.14;59.03;99976.16;4899675;29;20519;-81
2021/12/24 03:37:23;;;;;;;6.20;4.40;;;;;;;-21.20;58.47;99984.31;4884181;29;20087;-80
2021/12/24 03:39:50;;;;;;;3.13;2.95;;;;;;;-21.23;59.20;99984.16;4915528;29;20052;-81
2021/12/24 03:42:16;;;;;;;4.30;3.90;;;;;;;-21.27;58.91;99983.91;4883980;29;20047;-79
2021/12/24 03:44:50;;;;;;;4.30;2.90;;;;;;;-21.26;59.06;99988.19;4899889;29;20510;-79
2021/12/24 03:47:19;;;;;;;3.08;2.80;;;;;;;-21.36;59.00;99996.97;4901201;29;20048;-80
2021/12/24 03:50:01;;;;;;;4.97;4.53;;;;;;;-21.50;59.53;99987.72;4901460;29;20048;-80
2021/12/24 03:54:57;;;;;;;3.72;3.33;;;;;;;-21.50;59.47;99992.78;4899762;29;20066;-80
2021/12/24 03:57:25;;;;;;;2.65;2.45;;;;;;;-21.56;59.54;99993.31;4884418;29;20040;-81
2021/12/24 04:00:18;;;;;;;3.97;3.67;;;;;;;-21.52;59.67;100007.91;4916207;29;20044;-78
2021/12/24 04:02:45;;;;;;;6.57;3.63;;;;;;;-21.60;59.62;100002.41;4899958;29;20134;-79
2021/12/24 04:05:43;;;;;;;7.15;5.28;;;;;;;-21.61;59.63;100002.31;4894601;29;20071;-80
2021/12/24 04:08:25;;;;;;;6.40;3.28;;;;;;;-21.59;59.70;100009.22;4902082;29;20510;-80
2021/12/24 04:11:04;;;;;;;3.83;3.35;;;;;;;-21.69;59.85;100006.97;4886051;29;20123;-79
2021/12/24 04:13:33;;;;;;;9.73;5.00;;;;;;;-21.66;59.97;100014.75;4884043;29;20036;-80
2021/12/24 04:15:59;;;;;;;2.95;2.75;;;;;;;-21.75;59.79;100018.41;4899728;29;20284;-79
2021/12/24 04:26:24;;;;;;;10.13;3.30;;;;;;;-21.70;59.86;100030.56;4887204;29;20195;-78
2021/12/24 04:28:50;;;;;;;4.68;3.85;;;;;;;-21.70;60.20;100039.81;4916646;29;20048;-80
2021/12/24 04:31:19;;;;;;;6.10;4.47;;;;;;;-21.71;60.62;100036.41;4900214;29;20055;-80
2021/12/24 04:33:48;;;;;;;12.20;3.72;;;;;;;-21.60;60.34;100049.75;4918225;29;20056;-79
2021/12/24 05:03:33;;;;;;;4.10;3.70;;;;;;;-21.54;59.93;100095.78;4909342;29;20094;-88
2021/12/24 05:08:54;;;;;;;2.20;2.03;;;;;;;-21.49;59.94;100096.03;4921340;29;20052;-81
2021/12/24 05:11:21;;;;;;;2.80;2.60;;;;;;;-21.61;59.77;100091.13;4937525;29;20051;-80
2021/12/24 05:13:48;;;;;;;2.08;1.98;;;;;;;-21.54;59.51;100094.91;4921931;29;20439;-80
2021/12/24 05:16:50;;;;;;;3.53;3.22;;;;;;;-21.50;59.77;100099.38;4918872;29;20139;-85
2021/12/24 05:22:45;;;;;;;2.88;2.67;;;;;;;-21.42;59.69;100101.56;4919573;29;20043;-81
2021/12/24 05:25:14;;;;;;;4.25;3.88;;;;;;;-21.28;59.77;100101.44;4909266;29;20051;-87
2021/12/24 05:27:40;;;;;;;7.65;4.13;;;;;;;-21.33;59.29;100107.97;4904903;29;20051;-79
2021/12/24 05:30:07;;;;;;;7.68;4.45;;;;;;;-21.26;59.15;100112.56;4937385;29;20114;-81
2021/12/24 05:32:34;;;;;;;6.30;3.90;;;;;;;-21.23;59.04;100122.91;4936872;29;20047;-86
2021/12/24 05:35:00;;;;;;;4.82;2.85;;;;;;;-21.08;58.87;100125.47;4890050;29;20046;-79
2021/12/24 05:37:26;;;;;;;4.25;3.90;;;;;;;-21.00;58.91;100137.78;4937859;29;20094;-79
2021/12/24 05:39:52;;;;;;;12.00;5.38;;;;;;;-20.96;58.25;100134.66;4904787;29;20039;-84
2021/12/24 05:42:27;;;;;;;7.28;3.70;;;;;;;-20.39;65.32;100143.75;4920953;29;20184;-86
2021/12/24 05:44:57;;;;;;;2.55;2.35;;;;;;;-19.93;64.50;100146.28;4920669;29;20110;-81
2021/12/24 05:47:43;;;;;;;13.43;5.57;;;;;;;-20.03;60.88;100133.84;4907779;29;20550;-85
2021/12/24 05:50:09;;;;;;;11.18;6.22;;;;;;;-20.09;59.35;100142.81;4905429;29;20075;-85
2021/12/24 05:52:41;;;;;;;5.80;4.47;;;;;;;-20.02;58.38;100140.66;4892494;29;20071;-84
2021/12/24 05:55:26;;;;;;;5.05;4.28;;;;;;;-19.99;57.56;100140.84;4939459;29;20080;-84
2021/12/24 05:57:59;;;;;;;3.55;3.28;;;;;;;-19.83;57.43;100146.75;4910516;29;20102;-88
2021/12/24 06:00:26;;;;;;;3.97;3.45;;;;;;;-19.83;56.27;100155.25;4932664;29;20070;-86
2021/12/24 06:02:52;;;;;;;14.25;6.70;;;;;;;-19.85;56.69;100154.31;4889790;29;20446;-89
2021/12/24 06:05:18;;;;;;;15.07;5.60;;;;;;;-19.98;56.05;100157.84;4936523;29;20142;-83
2021/12/24 06:07:44;;;;;;;7.70;4.55;;;;;;;-19.99;56.42;100151.00;4904785;29;20082;-81
2021/12/24 06:10:10;;;;;;;8.60;5.45;;;;;;;-20.05;56.13;100155.75;4888363;29;20047;-86
2021/12/24 06:12:36;;;;;;;7.50;4.25;;;;;;;-20.06;56.02;100143.84;4888806;29;20067;-91
2021/12/24 06:15:06;;;;;;;10.57;5.20;;;;;;;-20.02;56.09;100150.84;4904040;29;20056;-81
2021/12/24 06:17:33;;;;;;;6.85;3.53;;;;;;;-20.17;56.14;100143.25;4905229;29;20066;-82
2021/12/24 06:19:59;;;;;;;5.25;2.65;;;;;;;-20.15;55.99;100138.28;4904242;29;20047;-80
2021/12/24 06:22:25;;;;;;;9.35;5.63;;;;;;;-20.09;56.03;100137.72;4888802;29;20091;-85
2021/12/24 06:24:51;;;;;;;4.35;3.90;;;;;;;-20.21;56.13;100143.00;4903962;29;20044;-81
2021/12/24 06:27:17;;;;;;;9.85;4.45;;;;;;;-20.19;56.14;100156.72;4904193;29;20179;-80
2021/12/24 06:29:43;;;;;;;11.02;5.10;;;;;;;-20.07;56.36;100159.91;4904162;29;20150;-80
2021/12/24 06:32:09;;;;;;;6.97;4.85;;;;;;;-20.02;56.11;100149.97;4935134;29;20087;-86
2021/12/24 06:34:38;;;;;;;4.68;3.92;;;;;;;-20.18;56.21;100148.28;4866565;29;20147;-87
2021/12/24 06:37:04;;;;;;;4.32;3.78;;;;;;;-20.16;56.02;100167.03;4876865;29;20059;-87
2021/12/24 06:39:30;;;;;;;7.65;3.80;;;;;;;-20.04;56.02;100167.72;4917584;29;20555;-82
2021/12/24 06:41:56;;;;;;;4.88;3.47;;;;;;;-20.09;55.81;100148.75;4901542;29;20068;-84
2021/12/24 06:44:22;;;;;;;3.45;3.13;;;;;;;-20.16;55.62;100156.84;4900642;29;20515;-88
2021/12/24 06:46:48;;;;;;;3.20;2.97;;;;;;;-20.26;55.38;100162.25;4915391;29;20420;-85
2021/12/24 06:49:18;;;;;;;6.15;5.22;;;;;;;-20.39;55.67;100171.72;4884097;29;20103;-90
2021/12/24 06:51:46;;;;;;;5.07;3.58;;;;;;;-20.18;56.39;100168.63;4901892;29;21087;-88
2021/12/24 06:54:13;;;;;;;5.07;4.57;;;;;;;-20.19;56.15;100161.78;4898819;29;20057;-86
2021/12/24 06:56:39;;;;;;;5.95;5.10;;;;;;;-20.21;55.72;100165.91;4899144;29;20048;-81
2021/12/24 06:59:05;;;;;;;5.90;3.78;;;;;;;-20.09;56.00;100180.94;4899338;29;20059;-81
2021/12/24 07:01:31;;;;;;;4.10;3.80;;;;;;;-20.15;55.71;100173.88;4883437;29;20051;-79
2021/12/24 07:03:58;;;;;;;7.70;4.30;;;;;;;-20.11;56.01;100186.84;4883399;29;20593;-80
2021/12/24 07:06:24;;;;;;;6.63;4.90;;;;;;;-20.01;56.11;100188.19;4898956;29;20151;-80
2021/12/24 07:08:51;;;;;;;8.00;4.72;;;;;;;-20.00;56.05;100179.81;4898741;29;20130;-80
2021/12/24 07:11:17;;;;;;;4.93;3.58;;;;;;;-20.01;55.81;100188.19;4888165;29;20519;-82
2021/12/24 07:13:43;;;;;;;10.07;4.82;;;;;;;-19.98;55.71;100185.81;4887809;29;20048;-80
2021/12/24 07:16:09;;;;;;;4.65;4.25;;;;;;;-19.95;55.60;100188.53;4918536;29;20062;-78
2021/12/24 07:18:38;;;;;;;5.63;3.35;;;;;;;-19.90;55.29;100191.34;4902798;29;20399;-80
2021/12/24 07:21:04;;;;;;;6.45;3.65;;;;;;;-19.94;55.40;100200.47;4887713;29;20044;-82
2021/12/24 07:23:30;;;;;;;4.68;3.33;;;;;;;-19.90;55.29;100199.84;4896911;29;20418;-84
2021/12/24 07:25:57;;;;;;;3.70;3.33;;;;;;;-19.68;55.31;100203.53;4954708;29;20494;-83
2021/12/24 07:28:23;;;;;;;4.93;4.10;;;;;;;-19.68;54.56;100203.53;4929170;29;20436;-78
2021/12/24 07:30:49;;;;;;;10.70;4.65;;;;;;;-19.75;54.50;100214.19;4937078;29;20094;-80
2021/12/24 07:33:18;;;;;;;9.60;4.85;;;;;;;-19.64;57.20;100205.47;4921613;29;20039;-81
2021/12/24 07:35:44;;;;;;;8.02;5.30;;;;;;;-19.50;55.44;100184.13;4921303;29;20491;-84
2021/12/24 07:38:13;;;;;;;4.50;3.35;;;;;;;-19.32;54.30;100199.50;4952418;28;20063;-87
2021/12/24 07:40:41;;;;;;;4.70;3.90;;;;;;;-19.28;54.24;100195.44;4953133;29;20066;-79
2021/12/24 07:43:07;;;;;;;6.97;4.50;;;;;;;-19.26;54.11;100216.75;4890764;29;20043;-80
2021/12/24 07:45:33;;;;;;;7.60;4.82;;;;;;;-19.43;53.53;100214.22;4932453;29;20174;-80
2021/12/24 07:48:15;;;;;;;13.05;4.45;;;;;;;-19.42;54.28;100218.50;4890549;29;20047;-90
2021/12/24 07:53:13;;;;;;;7.00;4.70;;;;;;;-19.16;53.56;100206.25;4906503;29;20058;-81
2021/12/24 07:55:39;;;;;;;23.80;3.25;;;;;;;-19.03;53.56;100218.81;4937135;29;20047;-84
2021/12/24 07:58:06;;;;;;;27.58;15.65;;;;;;;-18.88;53.68;100218.72;4923507;29;20069;-81
2021/12/24 08:00:32;;;;;;;7.38;5.03;;;;;;;-18.96;52.99;100215.78;4907102;29;20484;-79
2021/12/24 08:03:03;;;;;;;10.38;6.15;;;;;;;-18.75;53.38;100222.78;4921120;29;20137;-83
2021/12/24 08:05:31;;;;;;;6.78;4.80;;;;;;;-18.73;52.53;100218.63;4937461;29;20498;-83
2021/12/24 08:07:58;;;;;;;5.03;3.38;;;;;;;-18.92;52.63;100204.94;4938223;29;20047;-88
2021/12/24 08:10:30;;;;;;;10.45;5.57;;;;;;;-18.85;53.22;100225.66;4909166;29;20057;-80
2021/12/24 08:12:59;;;;;;;5.78;2.95;;;;;;;-18.85;53.34;100220.56;4880215;29;20052;-81
2021/12/24 08:15:31;;;;;;;6.35;4.40;;;;;;;-18.84;52.83;100209.56;4882416;29;20155;-81
2021/12/24 08:17:57;;;;;;;4.85;3.78;;;;;;;-18.82;52.47;100180.81;4867842;29;20167;-82
2021/12/24 08:20:25;;;;;;;7.60;4.55;;;;;;;-18.77;52.00;100189.53;4883036;29;20052;-89
2021/12/24 08:22:53;;;;;;;7.40;4.95;;;;;;;-18.76;52.07;100205.75;4883463;29;20092;-88
2021/12/24 08:25:22;;;;;;;6.70;3.45;;;;;;;-18.73;52.48;100175.28;4901956;29;20064;-86
2021/12/24 08:27:49;;;;;;;7.55;4.53;;;;;;;-18.42;51.95;100206.56;4902851;29;20148;-80
2021/12/24 08:30:15;;;;;;;6.95;4.93;;;;;;;-18.14;60.08;100218.97;4898761;29;20049;-82
2021/12/24 08:32:42;;;;;;;10.35;5.47;;;;;;;-18.17;52.77;100225.59;4882301;29;20108;-80
2021/12/24 08:35:12;;;;;;;7.22;5.45;;;;;;;-18.01;52.15;100223.00;4867061;29;20045;-80
2021/12/24 08:37:40;;;;;;;11.05;6.15;;;;;;;-18.26;51.33;100220.94;4882360;29;20139;-82
2021/12/24 08:40:07;;;;;;;4.07;3.33;;;;;;;-18.37;51.37;100219.53;4882244;29;20063;-82
2021/12/24 08:42:33;;;;;;;5.03;4.55;;;;;;;-18.17;51.66;100213.72;4867251;29;20109;-85
2021/12/24 08:44:59;;;;;;;8.45;5.60;;;;;;;-18.17;51.14;100212.84;4920655;29;20138;-81
2021/12/24 08:47:25;;;;;;;7.20;4.63;;;;;;;-18.30;50.92;100210.50;4905656;29;20067;-80
2021/12/24 08:49:51;;;;;;;4.30;3.20;;;;;;;-18.36;51.19;100220.41;4874660;29;20120;-80
2021/12/24 08:52:17;;;;;;;9.20;5.90;;;;;;;-18.47;51.31;100218.19;4920600;29;20132;-82
2021/12/24 08:54:43;;;;;;;2.80;2.60;;;;;;;-18.36;51.83;100215.31;4859323;29;20486;-81
2021/12/24 08:57:09;;;;;;;4.55;3.75;;;;;;;-18.18;52.07;100211.97;4874606;29;20039;-82
2021/12/24 08:59:35;;;;;;;3.58;3.28;;;;;;;-18.20;51.23;100220.34;4874484;29;20144;-79
2021/12/24 09:02:03;;;;;;;5.72;4.35;;;;;;;-18.13;51.22;100215.59;4874111;29;20044;-79
2021/12/24 09:04:30;;;;;;;7.35;5.15;;;;;;;-18.01;50.84;100220.44;4890561;29;20040;-81
2021/12/24 09:06:56;;;;;;;9.80;5.85;;;;;;;-17.98;52.31;100224.78;4890274;29;20082;-80
2021/12/24 09:09:22;;;;;;;3.40;3.13;;;;;;;-17.76;51.51;100219.03;4921166;29;20085;-78
2021/12/24 09:11:48;;;;;;;6.47;4.75;;;;;;;-17.59;51.36;100215.56;4875377;29;20051;-81
2021/12/24 09:14:18;;;;;;;19.02;4.80;;;;;;;-17.46;51.28;100217.84;4889995;29;20188;-82
2021/12/24 09:17:09;;;;;;;8.23;5.18;;;;;;;-17.43;50.44;100206.91;4890493;29;20047;-84
2021/12/24 09:19:45;;;;;;;11.18;5.22;;;;;;;-17.25;51.20;100201.75;4912406;29;20097;-82
2021/12/24 09:22:16;;;;;;;13.35;4.20;;;;;;;-17.07;51.01;100224.66;4890855;29;20551;-80
2021/12/24 09:24:49;;;;;;;10.82;5.07;;;;;;;-17.31;50.96;100204.88;4892317;29;20067;-89
2021/12/24 09:27:15;;;;;;;7.85;5.10;;;;;;;-17.03;54.29;100222.31;4875420;29;20440;-85
2021/12/24 09:29:42;;;;;;;6.30;4.38;;;;;;;-17.03;51.05;100218.91;4906119;29;20059;-83
2021/12/24 09:32:08;;;;;;;7.63;5.30;;;;;;;-16.81;50.59;100225.78;4896507;29;20439;-83
2021/12/24 09:34:35;;;;;;;9.38;4.65;;;;;;;-16.61;50.74;100224.06;4890001;29;20448;-83
2021/12/24 09:37:01;;;;;;;13.35;5.82;;;;;;;-16.65;49.81;100223.06;4877905;29;20379;-84
2021/12/24 09:39:27;;;;;;;3.60;3.28;;;;;;;-16.52;49.51;100232.13;4883093;29;20055;-86
2021/12/24 09:41:53;;;;;;;10.02;5.68;;;;;;;-16.66;50.06;100222.19;4861129;29;20056;-86
2021/12/24 09:44:19;;;;;;;6.43;4.68;;;;;;;-16.74;49.21;100222.69;4902944;29;20500;-85
2021/12/24 09:46:45;;;;;;;10.57;5.40;;;;;;;-16.83;49.89;100243.63;4856144;29;20048;-83
2021/12/24 09:49:12;;;;;;;3.58;3.03;;;;;;;-16.72;50.31;100244.06;4902272;29;20521;-82
2021/12/24 09:51:41;;;;;;;7.20;5.13;;;;;;;-16.72;49.75;100242.38;4871781;29;20040;-83
2021/12/24 09:54:12;;;;;;;6.65;5.25;;;;;;;-16.66;50.00;100246.88;4887112;29;20048;-85
2021/12/24 09:56:39;;;;;;;8.27;5.20;;;;;;;-16.63;49.49;100238.47;4903295;29;20110;-83
2021/12/24 09:59:05;;;;;;;5.38;3.72;;;;;;;-16.73;49.20;100238.09;4892865;29;20559;-86
2021/12/24 10:01:33;;;;;;;8.27;4.20;;;;;;;-16.85;49.58;100235.00;4919322;29;20076;-81
2021/12/24 10:04:07;;;;;;;3.70;3.35;;;;;;;-16.82;49.73;100234.28;4865621;29;20525;-87
2021/12/24 10:06:34;;;;;;;9.23;4.60;;;;;;;-16.88;49.55;100236.56;4877096;29;20068;-79
2021/12/24 10:09:12;;;;;;;7.68;4.43;;;;;;;-17.02;49.89;100231.75;4903482;29;20075;-82
2021/12/24 10:11:47;;;;;;;9.00;5.97;;;;;;;-17.11;50.63;100245.78;4856010;29;20189;-79
2021/12/24 10:14:13;;;;;;;12.57;5.43;;;;;;;-17.07;51.19;100238.34;4887035;29;20510;-78
2021/12/24 10:16:44;;;;;;;11.32;4.43;;;;;;;-16.87;50.72;100240.88;4855233;29;20432;-81
2021/12/24 10:19:10;;;;;;;5.28;3.78;;;;;;;-16.91;50.25;100240.75;4870948;29;20077;-80
2021/12/24 10:21:36;;;;;;;4.93;3.65;;;;;;;-16.95;50.43;100238.88;4920336;29;20138;-82
2021/12/24 10:24:09;;;;;;;8.65;4.80;;;;;;;-16.87;50.33;100236.66;4915351;29;20044;-82
2021/12/24 10:26:44;;;;;;;7.50;5.00;;;;;;;-16.74;50.38;100238.03;4922734;29;20043;-81
2021/12/24 10:29:16;;;;;;;7.38;4.15;;;;;;;-17.05;50.40;100216.25;4886498;29;20043;-79
2021/12/24 10:31:48;;;;;;;8.90;5.10;;;;;;;-17.10;50.43;100243.31;4904667;29;20078;-80
2021/12/24 10:34:17;;;;;;;9.43;4.93;;;;;;;-17.19;51.15;100243.75;4889674;29;20063;-78
2021/12/24 10:36:59;;;;;;;3.95;3.58;;;;;;;-17.08;51.08;100239.13;4924277;29;20051;-81
2021/12/24 10:39:52;;;;;;;5.95;4.47;;;;;;;-17.15;50.77;100234.53;4922248;29;20059;-81
2021/12/24 10:42:49;;;;;;;9.88;4.45;;;;;;;-17.37;50.89;100242.06;4918937;29;20150;-80
2021/12/24 10:45:20;;;;;;;9.93;4.75;;;;;;;-17.34;51.03;100242.19;4922165;29;20092;-82
2021/12/24 10:47:47;;;;;;;23.60;4.05;;;;;;;-17.52;50.89;100238.03;4939039;29;20055;-84
2021/12/24 10:55:44;;;;;;;9.48;4.03;;;;;;;-17.35;51.34;100258.34;4931066;29;20141;-84
2021/12/24 10:58:15;;;;;;;7.85;4.95;;;;;;;-17.32;51.39;100261.91;4954899;29;20043;-85
2021/12/24 11:00:52;;;;;;;5.00;3.70;;;;;;;-17.38;51.80;100260.75;4923090;29;20050;-85
2021/12/24 11:03:23;;;;;;;12.45;5.13;;;;;;;-17.27;50.83;100267.22;4955372;29;20502;-87
2021/12/24 11:05:54;;;;;;;8.93;5.30;;;;;;;-17.50;50.66;100261.06;4939622;29;20533;-83
2021/12/24 11:08:22;;;;;;;3.40;2.92;;;;;;;-17.91;51.21;100242.16;4923493;29;20070;-79
2021/12/24 11:10:50;;;;;;;16.70;5.05;;;;;;;-17.87;51.69;100255.94;4909672;29;20450;-84
2021/12/24 11:13:27;;;;;;;6.25;4.80;;;;;;;-18.31;52.32;100259.75;4924397;29;20047;-86
2021/12/24 11:15:54;;;;;;;7.57;5.50;;;;;;;-18.47;52.00;100259.00;4925284;29;20491;-89
2021/12/24 11:18:23;;;;;;;6.15;4.90;;;;;;;-18.63;52.25;100271.78;4956289;29;20073;-88
2021/12/24 11:20:52;;;;;;;;;;;;;;;-18.92;53.24;100258.47;4940137;29;20050;-87
2021/12/24 11:23:18;;;;;;;;;;;;;;;-19.07;53.61;100272.97;4952837;29;19934;-88
2021/12/24 11:25:46;;;;;;;8.85;4.70;;;;;;;-19.35;54.63;100278.28;4935999;29;19966;-89
2021/12/24 11:28:13;;;;;;;4.53;3.53;;;;;;;-19.46;54.89;100272.59;4934463;29;20045;-92
2021/12/24 11:30:45;;;;;;;4.38;3.70;;;;;;;-19.54;55.35;100262.81;4923304;29;20049;-91
2021/12/24 11:33:15;;;;;;;6.07;3.30;;;;;;;-19.48;55.21;100268.22;4907675;29;20047;-87
2021/12/24 11:35:43;;;;;;;5.70;4.53;;;;;;;-19.47;55.11;100278.50;4938457;29;20035;-87
2021/12/24 11:38:15;;;;;;;6.80;4.93;;;;;;;-19.62;55.57;100282.81;4938568;29;20055;-87
2021/12/24 11:40:41;;;;;;;4.63;3.67;;;;;;;-19.66;55.70;100273.25;4907459;29;20082;-87
2021/12/24 11:43:07;;;;;;;4.85;4.15;;;;;;;-19.69;56.06;100280.72;4922683;29;20047;-85
2021/12/24 11:45:34;;;;;;;4.07;3.47;;;;;;;-19.71;56.03;100290.78;4939001;29;20102;-85
2021/12/24 11:48:01;;;;;;;10.73;5.15;;;;;;;-19.83;56.24;100279.94;4938872;29;20051;-86
2021/12/24 11:50:28;;;;;;;6.68;5.32;;;;;;;-19.91;56.64;100301.53;4922963;29;20134;-89
2021/12/24 11:52:55;;;;;;;10.40;5.30;;;;;;;-19.97;56.26;100298.66;4954556;29;20156;-90
2021/12/24 11:55:22;;;;;;;6.60;5.20;;;;;;;-20.00;57.07;100296.81;4922854;29;20114;-89
2021/12/24 11:57:50;;;;;;;3.10;2.90;;;;;;;-20.00;56.73;100296.81;4923701;29;20050;-87
2021/12/24 12:00:21;;;;;;;10.98;5.70;;;;;;;-20.03;56.96;100304.28;4926850;29;20058;-92
2021/12/24 12:02:47;;;;;;;8.18;5.55;;;;;;;-20.19;57.63;100322.00;4924597;29;20446;-89
2021/12/24 12:05:19;;;;;;;5.95;3.42;;;;;;;-20.22;57.90;100324.38;4940067;29;20138;-90
2021/12/24 12:07:45;;;;;;;7.82;5.32;;;;;;;-20.22;58.00;100322.69;4932369;29;20050;-89
2021/12/24 12:10:12;;;;;;;7.50;4.55;;;;;;;-20.38;57.92;100309.88;4920572;29;20054;-87
2021/12/24 12:12:39;;;;;;;8.80;5.88;;;;;;;-20.33;58.48;100320.34;4948271;29;20043;-86
2021/12/24 12:15:24;;;;;;;5.65;4.82;;;;;;;-20.49;58.55;100324.56;4944630;29;20043;-88
2021/12/24 12:17:51;;;;;;;6.05;4.63;;;;;;;-20.55;58.97;100324.19;4947959;29;20078;-88
2021/12/24 12:20:47;;;;;;;10.00;5.15;;;;;;;-20.56;59.50;100335.16;4946118;29;20074;-89
2021/12/24 12:23:52;;;;;;;17.42;6.47;;;;;;;-20.65;59.48;100343.09;4939421;29;20111;-86
2021/12/24 12:26:35;;;;;;;15.93;7.78;;;;;;;-20.77;59.74;100341.50;4924285;29;20073;-85
2021/12/24 12:29:24;;;;;;;5.57;3.17;;;;;;;-20.80;59.81;100341.31;4924005;29;20151;-85
2021/12/24 12:32:01;;;;;;;8.07;5.10;;;;;;;-20.76;60.36;100348.31;4965357;29;20027;-86
2021/12/24 12:34:48;;;;;;;4.28;3.30;;;;;;;-20.73;60.07;100351.94;4951930;29;20019;-85
2021/12/24 12:37:16;;;;;;;4.57;4.18;;;;;;;-20.69;60.49;100355.53;4965134;29;20099;-86
2021/12/24 12:39:42;;;;;;;6.18;4.32;;;;;;;-20.74;60.28;100341.69;4944340;29;20038;-88
2021/12/24 12:42:09;;;;;;;3.13;2.80;;;;;;;-20.77;60.44;100357.63;4921542;29;20051;-85
2021/12/24 12:44:37;;;;;;;7.95;3.05;;;;;;;-20.79;60.71;100348.13;4919370;29;20039;-82
2021/12/24 12:47:21;;;;;;;11.23;5.10;;;;;;;-20.78;60.74;100352.44;4957185;29;20047;-85
2021/12/24 12:49:47;;;;;;;7.55;5.03;;;;;;;-20.81;60.84;100352.25;4914902;29;20066;-82
2021/12/24 12:52:21;;;;;;;8.25;4.50;;;;;;;-20.89;60.85;100334.03;4941188;29;20043;-81
2021/12/24 12:54:52;;;;;;;5.80;5.07;;;;;;;-20.81;61.00;100358.22;4944433;29;20082;-82
2021/12/24 12:57:21;;;;;;;7.03;4.93;;;;;;;-20.83;61.22;100361.44;4925522;29;20063;-87
2021/12/24 13:00:05;;;;;;;;;;;;;;;-20.04;68.92;100355.06;4941524;29;20208;-92
2021/12/24 13:02:57;;;;;;;9.65;5.18;;;;;;;-19.65;66.95;100351.34;4956606;29;20412;-86
2021/12/24 13:05:24;;;;;;;4.40;3.80;;;;;;;-20.07;62.74;100345.59;4942476;29;20047;-85